Time;durP1;ratioP1;P1;durP2;ratioP2;P2;SDS_P1;SDS_P2;PMS_P1;PMS_P2;Temp;Humidity;BMP_temperature;BMP_pressure;BME280_temperature;BME280_humidity;BME280_pressure;Samples;Min_cycle;Max_cycle;Signal;HPM_P1;HPM_P2
2023/07/03 00:02:25;;;;;;;16.93;6.30;;;14.10;98.50;;;;;;5048349;28;20946;-73
2023/07/03 00:04:50;;;;;;;16.30;6.27;;;13.90;98.90;;;;;;5041765;28;20692;-73
2023/07/03 00:07:16;;;;;;;14.80;5.97;;;14.00;99.20;;;;;;5041820;28;20186;-73
2023/07/03 00:09:43;;;;;;;19.90;6.53;;;14.10;98.20;;;;;;5054902;28;20170;-73
2023/07/03 00:12:10;;;;;;;12.00;6.10;;;14.20;98.40;;;;;;5068318;28;20618;-73
2023/07/03 00:14:36;;;;;;;18.30;6.40;;;14.10;98.40;;;;;;5048104;28;20508;-73
2023/07/03 00:17:02;;;;;;;15.00;6.17;;;14.10;98.00;;;;;;5062606;28;20420;-73
2023/07/03 00:19:31;;;;;;;16.50;6.27;;;14.10;98.00;;;;;;5075200;28;20511;-73
2023/07/03 00:22:00;;;;;;;15.47;6.17;;;14.10;98.30;;;;;;5061238;28;20228;-73
2023/07/03 00:24:28;;;;;;;31.53;6.40;;;14.20;98.40;;;;;;5065600;28;20757;-73
2023/07/03 00:26:55;;;;;;;18.70;5.73;;;14.10;98.20;;;;;;5043026;28;20421;-73
2023/07/03 00:29:21;;;;;;;18.10;6.60;;;14.10;98.40;;;;;;5066171;28;20450;-73
2023/07/03 00:31:46;;;;;;;14.60;5.47;;;14.00;98.60;;;;;;5054615;28;20912;-73
2023/07/03 00:34:12;;;;;;;22.57;7.20;;;14.00;98.90;;;;;;5048215;28;20427;-73
2023/07/03 00:36:37;;;;;;;18.10;5.47;;;13.90;99.20;;;;;;5058826;28;20184;-73
2023/07/03 00:39:04;;;;;;;16.43;6.47;;;13.90;99.10;;;;;;5051429;28;20210;-73
2023/07/03 00:41:30;;;;;;;17.47;6.50;;;14.00;98.80;;;;;;5060584;28;20555;-73
2023/07/03 00:43:56;;;;;;;17.30;5.43;;;14.10;98.30;;;;;;5065548;28;20424;-73
2023/07/03 00:46:22;;;;;;;9.43;5.30;;;14.10;98.80;;;;;;5069162;28;20424;-73
2023/07/03 00:48:48;;;;;;;11.53;5.63;;;14.20;99.10;;;;;;5066725;28;20178;-73
2023/07/03 00:51:15;;;;;;;11.30;5.40;;;14.20;98.60;;;;;;5041434;28;20497;-73
2023/07/03 00:53:41;;;;;;;11.77;5.50;;;14.40;98.30;;;;;;5066333;28;20444;-73
2023/07/03 00:56:06;;;;;;;16.70;5.70;;;14.50;98.30;;;;;;5067781;28;20883;-73
2023/07/03 00:58:33;;;;;;;13.93;5.10;;;14.60;97.90;;;;;;5061925;28;20181;-73
2023/07/03 01:01:15;;;;;;;26.87;5.73;;;14.60;97.80;;;;;;5073846;28;20256;-73
2023/07/03 01:03:46;;;;;;;17.70;6.90;;;14.70;97.70;;;;;;5064158;28;20428;-73
2023/07/03 01:06:19;;;;;;;13.17;5.77;;;14.80;98.00;;;;;;5071440;28;20424;-73
2023/07/03 01:08:49;;;;;;;18.37;6.10;;;14.90;97.90;;;;;;5074201;28;20447;-73
2023/07/03 01:11:17;;;;;;;11.43;6.03;;;14.90;98.00;;;;;;5047929;28;20963;-73
2023/07/03 01:13:45;;;;;;;14.20;6.70;;;15.00;98.00;;;;;;5060772;28;20418;-73
2023/07/03 01:16:11;;;;;;;14.80;5.43;;;15.00;98.10;;;;;;5040803;28;20421;-73
2023/07/03 01:18:38;;;;;;;7.63;5.13;;;15.10;97.70;;;;;;5040491;28;20417;-73
2023/07/03 01:21:14;;;;;;;15.13;6.90;;;15.10;97.80;;;;;;5060135;28;20438;-73
2023/07/03 01:23:47;;;;;;;15.30;6.53;;;15.30;97.80;;;;;;5059033;28;20415;-73
2023/07/03 01:26:15;;;;;;;14.33;6.50;;;15.30;97.50;;;;;;5063061;28;20419;-73
2023/07/03 01:28:43;;;;;;;16.30;6.27;;;15.30;97.70;;;;;;5070911;28;20498;-74
2023/07/03 01:31:11;;;;;;;14.83;5.73;;;15.50;97.30;;;;;;5053374;28;20448;-73
2023/07/03 01:33:40;;;;;;;16.60;5.83;;;15.50;96.80;;;;;;5050770;28;20413;-74
2023/07/03 01:36:11;;;;;;;15.07;6.87;;;15.50;96.10;;;;;;5033557;28;20416;-73
2023/07/03 01:38:41;;;;;;;18.17;6.23;;;15.60;95.90;;;;;;5068419;28;20411;-73
2023/07/03 01:41:07;;;;;;;9.40;4.57;;;15.70;95.60;;;;;;5050655;28;20414;-73
2023/07/03 01:43:34;;;;;;;21.33;6.00;;;15.80;95.50;;;;;;5050897;28;20919;-73
2023/07/03 01:45:59;;;;;;;11.60;6.43;;;15.70;95.20;;;;;;5053384;28;20196;-73
2023/07/03 01:48:25;;;;;;;18.27;6.17;;;15.80;95.30;;;;;;5057760;28;20416;-75
2023/07/03 01:50:51;;;;;;;11.47;5.73;;;15.90;95.00;;;;;;5073131;28;20200;-75
2023/07/03 01:53:31;;;;;;;13.57;6.10;;;15.90;94.80;;;;;;5073196;28;20177;-75
2023/07/03 01:56:15;;;;;;;17.13;5.60;;;15.90;94.80;;;;;;5060923;28;20184;-75
2023/07/03 01:58:49;;;;;;;11.27;4.97;;;16.00;94.80;;;;;;5045038;28;20432;-75
2023/07/03 02:01:32;;;;;;;12.67;5.37;;;15.90;94.80;;;;;;5062671;28;20562;-75
2023/07/03 02:04:05;;;;;;;17.40;6.10;;;16.00;94.70;;;;;;5064095;28;20443;-75
2023/07/03 02:06:38;;;;;;;12.83;5.60;;;16.00;94.50;;;;;;5065257;28;20904;-75
2023/07/03 02:09:07;;;;;;;11.03;4.90;;;16.00;94.60;;;;;;5040768;28;20530;-75
2023/07/03 02:11:33;;;;;;;14.10;6.77;;;15.90;94.60;;;;;;5072725;28;20462;-75
2023/07/03 02:13:59;;;;;;;14.30;4.83;;;16.00;94.60;;;;;;5070803;28;20773;-75
2023/07/03 02:16:25;;;;;;;16.43;5.37;;;16.00;94.70;;;;;;5052904;28;20431;-75
2023/07/03 02:18:51;;;;;;;22.17;5.60;;;16.00;94.80;;;;;;5038351;28;20189;-75
2023/07/03 02:21:17;;;;;;;25.23;6.03;;;15.90;94.70;;;;;;5061212;28;20173;-75
2023/07/03 02:23:43;;;;;;;17.00;6.93;;;15.90;94.90;;;;;;5071346;28;20637;-75
2023/07/03 02:26:09;;;;;;;20.63;6.27;;;15.80;95.10;;;;;;5052992;28;20196;-75
2023/07/03 02:28:36;;;;;;;11.83;5.60;;;15.80;95.20;;;;;;5066179;28;20436;-75
2023/07/03 02:31:02;;;;;;;32.83;6.97;;;15.80;95.30;;;;;;5052370;28;20470;-75
2023/07/03 02:33:28;;;;;;;28.80;7.30;;;15.70;95.30;;;;;;5052637;28;20405;-75
2023/07/03 02:35:54;;;;;;;13.10;6.47;;;15.70;95.40;;;;;;5052831;28;20419;-75
2023/07/03 02:38:19;;;;;;;14.53;6.67;;;15.70;95.40;;;;;;5051402;28;20180;-75
2023/07/03 02:40:46;;;;;;;15.70;7.00;;;15.60;95.50;;;;;;5032678;28;20219;-75
2023/07/03 02:43:12;;;;;;;13.10;6.67;;;15.60;95.70;;;;;;5034008;28;20710;-75
2023/07/03 02:45:40;;;;;;;15.83;5.50;;;15.60;95.60;;;;;;5044565;28;20448;-75
2023/07/03 02:48:08;;;;;;;15.73;6.17;;;15.60;95.50;;;;;;5034742;28;20413;-74
2023/07/03 02:50:34;;;;;;;12.90;6.80;;;15.60;95.80;;;;;;5052610;28;20460;-75
2023/07/03 02:53:00;;;;;;;16.47;7.10;;;15.70;95.50;;;;;;5050559;28;20415;-75
2023/07/03 02:55:26;;;;;;;16.50;6.97;;;15.70;95.60;;;;;;5041197;28;20488;-75
2023/07/03 02:57:53;;;;;;;17.60;7.20;;;15.70;95.50;;;;;;5054250;28;20170;-75
2023/07/03 03:00:19;;;;;;;19.30;6.67;;;15.70;95.50;;;;;;5072858;28;20175;-75
2023/07/03 03:02:47;;;;;;;13.07;6.07;;;15.70;95.50;;;;;;5068012;28;20420;-73
2023/07/03 03:05:13;;;;;;;15.67;5.77;;;15.70;95.80;;;;;;5032537;28;20182;-73
2023/07/03 03:07:39;;;;;;;19.80;7.13;;;15.60;96.00;;;;;;5035744;28;20440;-73
2023/07/03 03:10:05;;;;;;;14.93;6.10;;;15.60;95.80;;;;;;5042637;28;20225;-73
2023/07/03 03:12:31;;;;;;;22.37;6.73;;;15.60;95.90;;;;;;5038860;28;20185;-73
2023/07/03 03:14:56;;;;;;;20.67;6.60;;;15.60;95.80;;;;;;5063052;28;20952;-73
2023/07/03 03:17:22;;;;;;;15.37;6.50;;;15.60;96.00;;;;;;5069571;28;20287;-73
2023/07/03 03:19:48;;;;;;;10.37;5.50;;;15.60;95.90;;;;;;5056578;28;20356;-73
2023/07/03 03:22:13;;;;;;;23.30;6.43;;;15.60;95.80;;;;;;5059112;28;20208;-75
2023/07/03 03:24:39;;;;;;;22.80;6.00;;;15.60;96.10;;;;;;5076352;28;20562;-75
2023/07/03 03:27:06;;;;;;;11.53;5.30;;;15.50;96.00;;;;;;5044316;28;20213;-75
2023/07/03 03:29:33;;;;;;;12.73;5.60;;;15.60;96.10;;;;;;5045816;28;20260;-75
2023/07/03 03:31:59;;;;;;;21.43;7.27;;;15.50;96.00;;;;;;5056186;28;20455;-75
2023/07/03 03:34:25;;;;;;;18.17;7.27;;;15.60;96.00;;;;;;5056364;28;20446;-73
2023/07/03 03:36:50;;;;;;;12.10;5.70;;;15.70;96.00;;;;;;5056057;28;20855;-73
2023/07/03 03:39:16;;;;;;;19.87;6.20;;;15.60;96.10;;;;;;5055968;28;20165;-73
2023/07/03 03:41:42;;;;;;;23.23;6.83;;;15.60;96.10;;;;;;5044805;28;20205;-73
2023/07/03 03:44:07;;;;;;;20.13;5.60;;;15.60;96.00;;;;;;5075960;28;20169;-73
2023/07/03 03:46:34;;;;;;;17.27;5.60;;;15.60;96.10;;;;;;5075861;28;20173;-73
2023/07/03 03:49:00;;;;;;;13.20;6.20;;;15.70;96.00;;;;;;5066816;28;20184;-73
2023/07/03 03:51:26;;;;;;;12.17;4.80;;;15.60;96.00;;;;;;5055644;28;20456;-73
2023/07/03 03:53:51;;;;;;;20.83;6.63;;;15.70;95.90;;;;;;5055931;28;20174;-72
2023/07/03 03:56:19;;;;;;;17.83;5.27;;;15.70;95.90;;;;;;5071291;28;20602;-73
2023/07/03 03:58:45;;;;;;;11.50;5.90;;;15.70;96.00;;;;;;5066415;28;20635;-73
2023/07/03 04:01:11;;;;;;;14.03;5.83;;;15.60;96.10;;;;;;5058079;28;20408;-72
2023/07/03 04:03:36;;;;;;;19.60;5.63;;;15.60;96.10;;;;;;5065790;28;20431;-73
2023/07/03 04:06:02;;;;;;;23.47;7.27;;;15.60;96.10;;;;;;5068194;28;20535;-75
2023/07/03 04:08:27;;;;;;;12.53;4.70;;;15.60;96.20;;;;;;5045248;28;20281;-73
2023/07/03 04:10:53;;;;;;;9.30;4.80;;;15.70;96.40;;;;;;5035330;28;20273;-73
2023/07/03 04:13:19;;;;;;;13.40;5.00;;;15.60;96.40;;;;;;5055460;28;20563;-73
2023/07/03 04:15:57;;;;;;;13.07;5.53;;;15.70;96.50;;;;;;5075657;28;20185;-73
2023/07/03 04:18:25;;;;;;;13.17;5.50;;;15.70;96.40;;;;;;5063754;28;20185;-73
2023/07/03 04:20:51;;;;;;;12.80;5.47;;;15.60;96.30;;;;;;5041633;28;20499;-73
2023/07/03 04:23:18;;;;;;;20.97;5.60;;;15.70;96.40;;;;;;5066885;28;20427;-73
2023/07/03 04:25:44;;;;;;;12.77;5.57;;;15.70;96.40;;;;;;5074812;28;20477;-73
2023/07/03 04:28:10;;;;;;;16.00;5.77;;;15.70;96.30;;;;;;5074156;28;20419;-73
2023/07/03 04:30:36;;;;;;;19.53;6.40;;;15.70;96.40;;;;;;5056516;28;20275;-73
2023/07/03 04:33:02;;;;;;;14.50;5.43;;;15.70;96.50;;;;;;5049876;28;20449;-73
2023/07/03 04:35:28;;;;;;;16.80;5.50;;;15.70;96.60;;;;;;5035169;28;20216;-73
2023/07/03 04:37:53;;;;;;;10.13;5.07;;;15.70;96.50;;;;;;5046483;28;20412;-73
2023/07/03 04:40:19;;;;;;;9.10;3.97;;;15.70;96.70;;;;;;5036579;28;20178;-73
2023/07/03 04:42:45;;;;;;;15.07;4.90;;;15.80;96.50;;;;;;5046174;28;20189;-74
2023/07/03 04:45:13;;;;;;;12.70;4.77;;;15.80;96.40;;;;;;5036971;28;20194;-73
2023/07/03 04:47:39;;;;;;;28.87;5.70;;;15.90;96.60;;;;;;5035869;28;20237;-74
2023/07/03 04:50:15;;;;;;;10.00;3.93;;;15.90;96.30;;;;;;5072606;28;20455;-74
2023/07/03 04:52:42;;;;;;;10.23;4.50;;;15.90;96.40;;;;;;5077642;28;20188;-73
2023/07/03 04:55:08;;;;;;;14.73;5.23;;;16.10;96.30;;;;;;5070730;28;20873;-73
2023/07/03 04:57:38;;;;;;;12.30;6.03;;;16.10;96.20;;;;;;5056627;28;20511;-73
2023/07/03 05:00:17;;;;;;;23.47;4.37;;;16.10;96.20;;;;;;5049434;28;20794;-73
2023/07/03 05:02:44;;;;;;;8.10;3.97;;;16.20;95.90;;;;;;5071902;28;21049;-73
2023/07/03 05:05:10;;;;;;;17.77;5.27;;;16.20;95.90;;;;;;5054378;28;20412;-73
2023/07/03 05:07:40;;;;;;;10.57;5.07;;;16.30;96.00;;;;;;5040592;28;20447;-73
2023/07/03 05:10:07;;;;;;;16.43;5.17;;;16.30;95.80;;;;;;5064059;28;20427;-73
2023/07/03 05:12:33;;;;;;;15.60;5.37;;;16.40;95.70;;;;;;5060293;28;20472;-73
2023/07/03 05:14:59;;;;;;;6.47;4.17;;;16.50;96.00;;;;;;5073491;28;20415;-73
2023/07/03 05:17:25;;;;;;;11.87;4.33;;;16.70;95.60;;;;;;5053083;28;20183;-73
2023/07/03 05:19:51;;;;;;;10.27;4.53;;;16.60;95.60;;;;;;5043968;28;20420;-72
2023/07/03 05:22:17;;;;;;;20.10;4.90;;;16.60;95.30;;;;;;5039852;28;20741;-72
2023/07/03 05:24:42;;;;;;;10.57;5.20;;;16.70;95.20;;;;;;5042983;28;20218;-72
2023/07/03 05:27:08;;;;;;;14.83;4.03;;;16.70;95.20;;;;;;5062966;23;20230;-72
2023/07/03 05:29:33;;;;;;;26.40;4.77;;;16.80;95.30;;;;;;5033870;28;20170;-74
2023/07/03 05:32:00;;;;;;;15.00;5.17;;;16.90;95.40;;;;;;5023706;28;20284;-74
2023/07/03 05:34:27;;;;;;;11.30;3.90;;;16.90;95.60;;;;;;5036781;28;20178;-73
2023/07/03 05:36:53;;;;;;;8.17;3.93;;;16.90;95.00;;;;;;5029733;28;20429;-73
2023/07/03 05:39:18;;;;;;;8.87;3.90;;;17.00;95.10;;;;;;5023663;28;20428;-73
2023/07/03 05:41:44;;;;;;;13.40;5.00;;;17.10;95.10;;;;;;5019595;28;20413;-73
2023/07/03 05:44:09;;;;;;;19.03;5.03;;;17.20;94.90;;;;;;5033040;28;20174;-73
2023/07/03 05:46:35;;;;;;;28.33;4.20;;;17.20;94.80;;;;;;5050085;28;20248;-73
2023/07/03 05:49:01;;;;;;;17.40;4.20;;;17.20;95.10;;;;;;5042835;28;20631;-73
2023/07/03 05:51:26;;;;;;;13.37;3.60;;;17.30;94.90;;;;;;5032978;28;20233;-73
2023/07/03 05:53:53;;;;;;;12.13;3.47;;;17.30;95.10;;;;;;5023580;28;20227;-73
2023/07/03 05:56:19;;;;;;;16.40;4.70;;;17.50;94.40;;;;;;5026635;28;20210;-73
2023/07/03 05:58:45;;;;;;;10.33;4.90;;;17.50;94.40;;;;;;5033028;28;20812;-73
2023/07/03 06:01:11;;;;;;;5.53;2.60;;;17.50;94.10;;;;;;5036602;28;20194;-73
2023/07/03 06:03:36;;;;;;;6.97;3.60;;;17.50;94.70;;;;;;5042647;28;20200;-73
2023/07/03 06:06:04;;;;;;;16.40;5.40;;;17.60;94.30;;;;;;5036662;28;20225;-73
2023/07/03 06:08:30;;;;;;;10.60;4.00;;;17.50;94.40;;;;;;5032786;28;20174;-73
2023/07/03 06:10:56;;;;;;;9.47;4.90;;;17.50;94.70;;;;;;5045650;28;20466;-73
2023/07/03 06:13:22;;;;;;;11.53;4.00;;;17.40;94.50;;;;;;5030133;28;20504;-73
2023/07/03 06:15:48;;;;;;;12.53;3.73;;;17.50;94.60;;;;;;5036331;28;20757;-72
2023/07/03 06:18:14;;;;;;;9.10;3.90;;;17.40;94.60;;;;;;5043499;28;20186;-73
2023/07/03 06:20:40;;;;;;;7.23;4.00;;;17.60;94.70;;;;;;5032844;28;20875;-73
2023/07/03 06:23:06;;;;;;;10.40;4.23;;;17.70;94.80;;;;;;5042940;28;20440;-73
2023/07/03 06:25:32;;;;;;;17.13;4.37;;;17.80;94.80;;;;;;5035583;28;20186;-73
2023/07/03 06:27:58;;;;;;;9.10;3.70;;;17.90;94.70;;;;;;5032566;28;20787;-73
2023/07/03 06:30:23;;;;;;;14.17;3.90;;;18.00;94.60;;;;;;5049829;28;20205;-73
2023/07/03 06:32:49;;;;;;;5.80;3.30;;;17.90;94.30;;;;;;5052689;28;20300;-73
2023/07/03 06:35:15;;;;;;;16.63;4.13;;;18.00;94.40;;;;;;5031398;28;20543;-73
2023/07/03 06:37:41;;;;;;;14.30;4.53;;;18.00;94.40;;;;;;5012969;28;20186;-72
2023/07/03 06:40:10;;;;;;;18.60;4.50;;;18.00;94.40;;;;;;5025675;28;20422;-73
2023/07/03 06:42:36;;;;;;;14.10;5.37;;;17.90;95.00;;;;;;5023432;28;20174;-73
2023/07/03 06:45:03;;;;;;;13.13;3.80;;;18.10;95.00;;;;;;5032051;28;20483;-73
2023/07/03 06:47:29;;;;;;;12.60;4.33;;;18.00;94.60;;;;;;5021280;28;20756;-73
2023/07/03 06:49:54;;;;;;;14.67;5.00;;;18.00;94.60;;;;;;5026567;28;20429;-73
2023/07/03 06:52:20;;;;;;;19.77;5.37;;;18.00;94.80;;;;;;5027966;28;20249;-73
2023/07/03 06:54:48;;;;;;;10.50;3.50;;;18.20;94.60;;;;;;5023137;28;20582;-73
2023/07/03 06:57:14;;;;;;;8.47;3.47;;;18.30;94.60;;;;;;5024805;28;20558;-73
2023/07/03 06:59:39;;;;;;;18.70;4.83;;;18.40;94.20;;;;;;5034871;28;20431;-73
2023/07/03 07:02:06;;;;;;;8.47;4.23;;;18.40;93.80;;;;;;5024921;28;20185;-73
2023/07/03 07:04:32;;;;;;;12.30;4.17;;;18.50;93.90;;;;;;5022202;28;20222;-73
2023/07/03 07:06:57;;;;;;;6.00;3.47;;;18.50;94.00;;;;;;5036528;28;20452;-73
2023/07/03 07:09:23;;;;;;;20.60;5.20;;;18.60;93.70;;;;;;5031089;28;20230;-73
2023/07/03 07:11:49;;;;;;;12.13;5.10;;;18.90;93.30;;;;;;5026573;28;20242;-73
2023/07/03 07:14:14;;;;;;;15.13;3.50;;;19.20;93.10;;;;;;5036382;28;20194;-72
2023/07/03 07:16:40;;;;;;;15.00;5.93;;;19.30;91.90;;;;;;5036469;28;20210;-72
2023/07/03 07:19:10;;;;;;;9.00;3.70;;;19.30;92.10;;;;;;5036143;28;20647;-73
2023/07/03 07:21:38;;;;;;;11.40;3.67;;;19.20;92.10;;;;;;5024634;28;20626;-74
2023/07/03 07:24:20;;;;;;;9.03;4.30;;;19.10;92.30;;;;;;5028948;28;20422;-74
2023/07/03 07:26:47;;;;;;;8.70;3.77;;;19.00;92.60;;;;;;5015273;28;20425;-74
2023/07/03 07:29:12;;;;;;;6.37;3.13;;;19.00;92.70;;;;;;5023138;28;20874;-74
2023/07/03 07:31:38;;;;;;;21.30;5.67;;;19.20;92.00;;;;;;5017900;28;20476;-73
2023/07/03 07:34:05;;;;;;;6.20;4.10;;;19.30;92.10;;;;;;5014248;28;20187;-73
2023/07/03 07:36:31;;;;;;;9.70;4.57;;;19.50;91.30;;;;;;5018029;28;20186;-74
2023/07/03 07:38:59;;;;;;;12.50;5.17;;;19.70;91.00;;;;;;5027506;28;20484;-75
2023/07/03 07:41:25;;;;;;;8.53;4.50;;;19.80;91.20;;;;;;5034451;28;21066;-74
2023/07/03 07:43:52;;;;;;;12.73;3.10;;;19.60;90.40;;;;;;5023926;28;20428;-74
2023/07/03 07:46:18;;;;;;;13.40;4.00;;;19.70;90.50;;;;;;5030464;28;20420;-74
2023/07/03 07:48:45;;;;;;;11.10;3.90;;;19.80;90.30;;;;;;5027584;28;20424;-74
2023/07/03 07:51:11;;;;;;;12.87;3.70;;;19.90;90.40;;;;;;5034525;28;20233;-74
2023/07/03 07:53:38;;;;;;;6.33;2.93;;;19.90;90.50;;;;;;5023352;28;20417;-74
2023/07/03 07:56:06;;;;;;;8.60;3.20;;;20.00;90.00;;;;;;5021947;28;20679;-74
2023/07/03 07:58:32;;;;;;;8.53;4.47;;;20.10;90.00;;;;;;5035829;28;20455;-75
2023/07/03 08:00:58;;;;;;;13.80;3.70;;;20.20;88.70;;;;;;5035675;28;20803;-75
2023/07/03 08:03:25;;;;;;;7.83;3.30;;;20.10;88.40;;;;;;5028099;28;20183;-75
2023/07/03 08:05:59;;;;;;;8.00;4.00;;;20.00;87.80;;;;;;5016104;28;20177;-74
2023/07/03 08:08:26;;;;;;;7.10;3.53;;;19.80;88.80;;;;;;5015796;28;20902;-75
2023/07/03 08:10:55;;;;;;;7.90;4.03;;;19.60;87.80;;;;;;5031862;28;20460;-75
2023/07/03 08:13:22;;;;;;;6.77;3.10;;;19.40;88.70;;;;;;5036052;28;20413;-74
2023/07/03 08:15:48;;;;;;;8.87;4.43;;;19.40;88.00;;;;;;5018858;28;20410;-75
2023/07/03 08:18:15;;;;;;;9.13;3.27;;;19.50;87.80;;;;;;5016285;28;20503;-74
2023/07/03 08:20:41;;;;;;;13.00;4.40;;;19.60;87.60;;;;;;5016168;28;20418;-74
2023/07/03 08:23:07;;;;;;;10.37;4.40;;;19.60;87.80;;;;;;5016021;28;20414;-74
2023/07/03 08:25:32;;;;;;;10.27;4.53;;;19.90;87.00;;;;;;5032560;28;20774;-74
2023/07/03 08:27:58;;;;;;;9.93;5.00;;;19.80;86.90;;;;;;5034648;28;20633;-74
2023/07/03 08:30:23;;;;;;;9.17;3.83;;;20.10;85.30;;;;;;5032829;28;20209;-74
2023/07/03 08:32:49;;;;;;;20.00;3.93;;;20.80;84.00;;;;;;5021574;28;20183;-74
2023/07/03 08:35:16;;;;;;;12.10;4.03;;;21.40;83.40;;;;;;5017943;28;20174;-74
2023/07/03 08:37:42;;;;;;;15.43;4.03;;;22.10;80.20;;;;;;5034756;28;20198;-74
2023/07/03 08:40:08;;;;;;;13.80;3.33;;;23.40;76.10;;;;;;5034600;28;20880;-74
2023/07/03 08:42:40;;;;;;;7.93;2.63;;;23.80;74.70;;;;;;5033977;28;20166;-75
2023/07/03 08:45:10;;;;;;;8.50;3.47;;;24.20;72.60;;;;;;5021498;28;20495;-75
2023/07/03 08:47:37;;;;;;;11.80;3.87;;;23.30;72.30;;;;;;5034915;28;20932;-74
2023/07/03 08:50:05;;;;;;;9.60;3.90;;;22.80;74.00;;;;;;5034751;28;20412;-74
2023/07/03 08:52:49;;;;;;;13.40;3.63;;;22.80;74.30;;;;;;5022834;28;20449;-75
2023/07/03 08:55:21;;;;;;;15.93;3.80;;;22.30;74.90;;;;;;5009564;28;20416;-75
2023/07/03 08:57:47;;;;;;;9.80;3.20;;;21.90;75.90;;;;;;5020899;28;20401;-74
2023/07/03 09:00:13;;;;;;;10.93;3.33;;;22.40;76.10;;;;;;5034948;28;21129;-74
2023/07/03 09:02:58;;;;;;;10.23;4.03;;;22.80;73.60;;;;;;5033777;28;20623;-74
2023/07/03 09:05:31;;;;;;;9.00;3.73;;;22.60;73.50;;;;;;5033916;28;20578;-74
2023/07/03 09:08:01;;;;;;;8.60;3.83;;;22.60;72.50;;;;;;5033162;28;20462;-74
2023/07/03 09:10:37;;;;;;;13.27;3.03;;;21.90;74.80;;;;;;5034389;28;20459;-74
2023/07/03 09:13:15;;;;;;;10.50;3.93;;;21.80;74.80;;;;;;5025954;28;20809;-74
2023/07/03 09:15:55;;;;;;;8.70;3.43;;;21.30;76.70;;;;;;5016445;28;20429;-75
2023/07/03 09:18:26;;;;;;;7.30;2.70;;;21.00;76.70;;;;;;5033801;28;20404;-74
2023/07/03 09:20:53;;;;;;;9.53;2.93;;;20.70;76.30;;;;;;5033945;28;20418;-74
2023/07/03 09:23:25;;;;;;;8.70;3.03;;;20.80;76.10;;;;;;5034088;28;20450;-74
2023/07/03 09:26:16;;;;;;;10.30;2.77;;;20.70;75.40;;;;;;5015383;28;20472;-74
2023/07/03 09:28:42;;;;;;;6.67;2.13;;;20.70;75.60;;;;;;5016189;28;20540;-74
2023/07/03 09:31:08;;;;;;;9.20;2.97;;;21.40;73.20;;;;;;5016709;28;20472;-74
2023/07/03 09:33:34;;;;;;;8.27;3.87;;;22.30;72.90;;;;;;5017604;28;20409;-74
2023/07/03 09:36:18;;;;;;;8.70;3.40;;;22.90;70.20;;;;;;5022679;28;20176;-75
2023/07/03 09:38:44;;;;;;;23.67;3.00;;;22.60;70.20;;;;;;5033041;28;20235;-75
2023/07/03 09:41:09;;;;;;;15.73;3.60;;;22.10;71.60;;;;;;5032871;28;20416;-74
2023/07/03 09:43:43;;;;;;;14.47;3.40;;;22.10;72.30;;;;;;5032945;28;20186;-74
2023/07/03 09:46:14;;;;;;;5.27;2.57;;;21.90;72.30;;;;;;5033352;28;20200;-73
2023/07/03 09:48:40;;;;;;;7.50;2.90;;;22.10;71.90;;;;;;5017883;28;20426;-74
2023/07/03 09:51:15;;;;;;;9.63;2.50;;;22.60;71.50;;;;;;5026606;28;20455;-74
2023/07/03 09:53:41;;;;;;;10.07;4.00;;;23.50;70.80;;;;;;5009397;28;20265;-74
2023/07/03 09:56:16;;;;;;;9.50;3.03;;;24.00;68.20;;;;;;5033377;28;20507;-74
2023/07/03 09:58:47;;;;;;;8.17;2.83;;;23.90;67.90;;;;;;5033297;28;20555;-75
2023/07/03 10:01:23;;;;;;;7.80;3.20;;;24.00;66.50;;;;;;5030186;28;20413;-73
2023/07/03 10:04:02;;;;;;;10.43;3.63;;;23.90;67.70;;;;;;5024802;28;20408;-74
2023/07/03 10:06:28;;;;;;;8.23;2.57;;;23.80;66.50;;;;;;5031167;28;20894;-74
2023/07/03 10:08:59;;;;;;;10.23;2.30;;;23.40;68.30;;;;;;5014115;28;20544;-74
2023/07/03 10:11:35;;;;;;;8.87;3.27;;;23.40;69.20;;;;;;5026094;28;20195;-74
2023/07/03 10:14:02;;;;;;;7.17;3.43;;;23.30;69.20;;;;;;5021765;28;20413;-73
2023/07/03 10:16:29;;;;;;;7.53;2.50;;;23.40;68.20;;;;;;5014392;28;20479;-74
2023/07/03 10:18:57;;;;;;;4.80;2.60;;;23.60;69.10;;;;;;5017239;28;20445;-75
2023/07/03 10:21:23;;;;;;;6.10;2.70;;;24.00;68.20;;;;;;5033925;28;20423;-74
2023/07/03 10:23:50;;;;;;;9.03;2.80;;;23.90;66.80;;;;;;5034563;28;20420;-74
2023/07/03 10:26:38;;;;;;;9.10;2.97;;;23.30;68.20;;;;;;5034605;28;20259;-74
2023/07/03 10:29:11;;;;;;;4.43;2.20;;;22.70;69.50;;;;;;5035804;28;20413;-74
2023/07/03 10:31:56;;;;;;;6.17;1.83;;;22.40;69.10;;;;;;5018102;28;20950;-73
2023/07/03 10:34:51;;;;;;;3.80;1.47;;;22.70;67.40;;;;;;5026793;28;20469;-73
2023/07/03 10:37:18;;;;;;;3.80;1.40;;;22.80;65.60;;;;;;4995563;28;20444;-73
2023/07/03 10:39:57;;;;;;;5.00;1.73;;;23.00;66.40;;;;;;5018764;28;20489;-72
2023/07/03 10:42:29;;;;;;;3.77;1.73;;;23.20;65.00;;;;;;5013137;28;20456;-73
2023/07/03 10:45:12;;;;;;;6.40;1.93;;;23.40;65.10;;;;;;5028973;28;20431;-72
2023/07/03 10:47:50;;;;;;;5.30;1.70;;;23.50;65.80;;;;;;5032821;28;20415;-73
2023/07/03 10:50:18;;;;;;;10.43;2.67;;;23.50;66.90;;;;;;5006298;28;20507;-75
2023/07/03 10:53:03;;;;;;;3.23;1.97;;;23.20;66.80;;;;;;5018594;28;20410;-75
2023/07/03 10:55:45;;;;;;;4.70;1.60;;;23.00;68.10;;;;;;5016862;28;20450;-74
2023/07/03 10:58:33;;;;;;;3.97;1.63;;;22.70;68.20;;;;;;5022731;28;20417;-75
2023/07/03 11:01:14;;;;;;;7.73;2.03;;;22.60;68.00;;;;;;5031720;28;20459;-74
2023/07/03 11:03:48;;;;;;;3.73;1.73;;;22.20;69.70;;;;;;5021680;28;20428;-75
2023/07/03 11:06:27;;;;;;;4.17;1.87;;;22.00;70.50;;;;;;5024698;28;20879;-74
2023/07/03 11:08:59;;;;;;;12.97;1.93;;;21.90;71.00;;;;;;5019479;28;20421;-72
2023/07/03 11:11:40;;;;;;;6.20;2.00;;;21.90;70.90;;;;;;5029664;28;20503;-71
2023/07/03 11:14:19;;;;;;;5.43;1.70;;;21.90;71.30;;;;;;5031065;28;20893;-71
2023/07/03 11:17:11;;;;;;;7.90;1.70;;;22.20;70.40;;;;;;5031465;28;20483;-72
2023/07/03 11:20:05;;;;;;;4.13;1.80;;;22.80;70.40;;;;;;5023620;28;20449;-72
2023/07/03 11:22:57;;;;;;;3.67;1.97;;;23.10;68.90;;;;;;5017055;28;20764;-72
2023/07/03 11:25:40;;;;;;;2.63;1.43;;;23.10;67.70;;;;;;5020181;28;20417;-72
2023/07/03 11:28:17;;;;;;;7.10;2.00;;;22.90;68.10;;;;;;5010096;28;20908;-73
2023/07/03 11:30:44;;;;;;;6.30;1.90;;;22.70;69.20;;;;;;5001980;28;20458;-73
2023/07/03 11:33:13;;;;;;;4.00;1.67;;;22.60;70.50;;;;;;5017296;28;20427;-73
2023/07/03 11:35:53;;;;;;;6.10;2.27;;;22.40;69.50;;;;;;5019246;28;20413;-73
2023/07/03 11:38:19;;;;;;;5.07;2.20;;;22.50;71.50;;;;;;5032475;28;20420;-74
2023/07/03 11:41:02;;;;;;;8.83;1.70;;;22.50;71.20;;;;;;5024648;28;20408;-72
2023/07/03 11:43:41;;;;;;;5.37;2.13;;;22.60;72.00;;;;;;5029083;28;20484;-73
2023/07/03 11:46:24;;;;;;;7.40;2.87;;;22.30;72.80;;;;;;5016598;28;20896;-74
2023/07/03 11:48:56;;;;;;;8.50;2.00;;;22.30;73.60;;;;;;5026026;28;20452;-74
2023/07/03 11:51:37;;;;;;;4.33;1.87;;;22.50;73.40;;;;;;5032192;28;20452;-73
2023/07/03 11:54:18;;;;;;;4.80;2.13;;;22.50;73.70;;;;;;5029525;28;20412;-74
2023/07/03 11:57:09;;;;;;;5.30;2.33;;;22.60;72.70;;;;;;5021196;28;20421;-73
2023/07/03 11:59:41;;;;;;;3.77;1.70;;;22.60;73.30;;;;;;5015464;28;20434;-74
2023/07/03 12:02:16;;;;;;;6.13;2.17;;;22.80;72.70;;;;;;5018899;28;20417;-73
2023/07/03 12:04:45;;;;;;;4.20;1.90;;;23.30;71.40;;;;;;5034138;28;20499;-72
2023/07/03 12:07:20;;;;;;;16.13;2.30;;;23.50;71.10;;;;;;5021546;28;20511;-74
2023/07/03 12:09:50;;;;;;;9.73;2.03;;;23.50;70.00;;;;;;5022567;28;20771;-73
2023/07/03 12:12:27;;;;;;;3.00;1.27;;;24.00;70.10;;;;;;5019427;28;20461;-75
2023/07/03 12:15:09;;;;;;;4.37;1.70;;;24.20;68.80;;;;;;5031572;28;20507;-73
2023/07/03 12:17:36;;;;;;;3.40;1.47;;;24.10;67.30;;;;;;5031784;28;20757;-74
2023/07/03 12:20:21;;;;;;;3.43;2.00;;;23.30;68.00;;;;;;5027681;28;20436;-73
2023/07/03 12:22:49;;;;;;;4.53;1.70;;;23.40;68.50;;;;;;5011193;28;20423;-75
2023/07/03 12:25:20;;;;;;;4.30;1.43;;;23.50;69.30;;;;;;5022208;28;20428;-73
2023/07/03 12:27:47;;;;;;;5.63;1.67;;;23.80;67.50;;;;;;5023912;28;20439;-74
2023/07/03 12:30:25;;;;;;;4.00;1.93;;;23.70;69.40;;;;;;5028393;28;20810;-75
2023/07/03 12:32:52;;;;;;;2.30;1.43;;;23.70;67.90;;;;;;5015156;28;20879;-73
2023/07/03 12:35:24;;;;;;;3.83;1.93;;;23.80;68.70;;;;;;5028689;28;20412;-73
2023/07/03 12:37:52;;;;;;;4.67;2.10;;;23.90;67.90;;;;;;5014902;28;20752;-74
2023/07/03 12:40:19;;;;;;;9.03;2.67;;;24.20;68.90;;;;;;5018999;28;20773;-75
2023/07/03 12:42:50;;;;;;;4.87;2.13;;;24.10;70.00;;;;;;5032853;28;20488;-75
2023/07/03 12:45:23;;;;;;;6.27;2.57;;;24.00;69.70;;;;;;5029010;28;20459;-74
2023/07/03 12:48:04;;;;;;;4.27;2.00;;;23.90;70.50;;;;;;5026419;28;20428;-75
2023/07/03 12:50:31;;;;;;;5.00;1.93;;;23.80;68.40;;;;;;5033653;28;20409;-74
2023/07/03 12:53:01;;;;;;;4.80;1.70;;;23.50;69.40;;;;;;5033341;28;20459;-75